Hauptseite
METAR-TAF:

METAR-TAF

Flughäfen :

Lanzhou, China

Breite: 36-02N, Länge: 103-52E, Höhe: 1518 m

Beobachtung

Neuester Wetterbericht von vor 45 Minuten, um 00:00 UTC
Wind 6 kt aus Nord/Nordwest
Temperatur 16°C
Luftfeuchtigkeit 51%
Luftdruck 1020 hPa
Sichtweite 10 km oder mehr
keine Wolken unter 1500 m und keine Kumulonimbus oder Gewitterwolken

METAR: ZLLL 240000Z 34003MPS CAVOK 16/06 Q1020 NOSIG

Zeit: 08:45 (00:45 UTC)

Prognose

Neuester Wetterbericht von vor 3 Stunden und 38 Minuten, um 21:07 UTC
Gültige Prognose vom 24 um 00 UTC bis 24 um 24 UTC
Wind 6 kt aus Süd/Südost
Sichtweite: 6000 m
Zeitweise
vom 24 um 06 UTC bis 24 um 10 UTC
Aufgelockert bewölkt in der Höhe von 2300 ft
Leicht bewölkt in der Höhe von 3300 ft, Kumulonimbus.

TAF: ZLLL 232107Z 2400/2424 16003MPS 6000 NSC TX29/2408Z TN13/2422Z TEMPO 2406/2410 SCT023 FEW033CB

Wetterbeobachtungen und Prognosen von mehr als 4000 Flughäfen (METAR und TAF Bericht).

Die verfügbaren Stationen werden durch gelbe und rote Markierungen auf der Karte dargestellt.

Führen Sie die Maus auf sie, um den Namen der Station zu sehen.

Darauf klicken, um die Beobachtung von Wetterbeobachtungen und Prognosen zu sehen.

Um die Karte zu ändern : klicken Sie auf den grünen Tasten mit einem schwarzen Kreuz Zum Vergrößern, auf den grünen Button mit einem Gedankenstrich zu verkleinern, oder auf die grünen Pfeile für benachbarte Karten.


METAR-TAF: